createdAt,value
2022-07-29T00:00:05.218Z,21.50
2022-07-29T00:02:33.474Z,21.50
2022-07-29T00:05:01.869Z,21.50
2022-07-29T00:07:30.015Z,21.40
2022-07-29T00:09:58.111Z,21.40
2022-07-29T00:12:27.810Z,21.40
2022-07-29T00:14:58.566Z,21.40
2022-07-29T00:17:27.178Z,21.40
2022-07-29T00:19:55.253Z,21.40
2022-07-29T00:22:23.275Z,21.40
2022-07-29T00:24:51.421Z,21.40
2022-07-29T00:27:19.966Z,21.30
2022-07-29T00:29:49.462Z,21.30
2022-07-29T00:32:17.680Z,21.40
2022-07-29T00:35:03.255Z,21.40
2022-07-29T00:37:31.304Z,21.40
2022-07-29T00:39:59.340Z,21.50
2022-07-29T00:42:29.605Z,21.50
2022-07-29T00:44:58.997Z,21.50
2022-07-29T00:47:27.140Z,21.60
2022-07-29T00:49:55.192Z,21.50
2022-07-29T21:03:36.215Z,23.60
2022-07-29T21:06:04.759Z,23.40
2022-07-29T21:08:32.831Z,23.30
2022-07-29T21:11:00.997Z,23.30
2022-07-29T21:13:29.357Z,23.20
2022-07-29T21:16:02.003Z,23.10
2022-07-29T21:18:37.175Z,22.90
2022-07-29T21:21:23.140Z,22.80
2022-07-29T21:23:54.353Z,22.70
2022-07-29T21:26:22.489Z,22.70
2022-07-29T21:29:17.782Z,22.70
2022-07-29T21:31:48.561Z,22.70
2022-07-29T21:34:38.196Z,22.70
2022-07-29T21:37:42.011Z,22.70
2022-07-29T21:40:18.022Z,22.60
2022-07-29T21:42:46.329Z,22.50
2022-07-29T21:45:46.804Z,22.40
2022-07-29T21:48:15.110Z,22.40
2022-07-29T21:50:49.563Z,22.40
2022-07-29T21:53:34.806Z,22.40
2022-07-29T21:56:32.046Z,22.40
2022-07-29T21:59:04.657Z,22.50
2022-07-29T22:04:55.332Z,22.50
2022-07-29T22:07:23.589Z,22.40
2022-07-29T22:10:03.484Z,22.50
2022-07-29T22:12:46.137Z,22.50
2022-07-29T22:18:40.908Z,22.50
2022-07-29T22:21:23.755Z,22.50
2022-07-29T22:24:04.100Z,22.40
2022-07-29T22:26:39.840Z,22.50
2022-07-29T22:29:29.430Z,22.60
2022-07-29T22:32:10.892Z,22.60
2022-07-29T22:34:46.944Z,22.40
2022-07-29T22:37:30.351Z,22.20
2022-07-29T22:40:09.426Z,22.20
2022-07-29T22:42:40.885Z,22.20
2022-07-29T22:45:28.382Z,22.20
2022-07-29T22:48:24.673Z,22.20
2022-07-29T22:51:04.515Z,22.20
2022-07-29T22:53:54.199Z,22.20
2022-07-29T22:56:44.202Z,22.10
2022-07-29T22:59:35.372Z,22.10
2022-07-29T23:02:13.688Z,22.00
2022-07-29T23:08:21.902Z,22.00
2022-07-29T23:11:23.035Z,22.00
2022-07-29T23:13:53.989Z,22.00
2022-07-29T23:16:26.623Z,22.00
2022-07-29T23:18:58.283Z,22.00
2022-07-29T23:21:28.906Z,22.10
2022-07-29T23:23:56.964Z,22.10
2022-07-29T23:26:25.020Z,22.00
2022-07-29T23:28:52.974Z,22.10
2022-07-29T23:31:21.022Z,22.00
2022-07-29T23:33:50.473Z,22.00
2022-07-29T23:36:20.074Z,21.90
2022-07-29T23:38:48.284Z,21.90
2022-07-29T23:41:16.491Z,21.90
2022-07-29T23:43:44.539Z,21.90
2022-07-29T23:46:12.566Z,21.90
2022-07-29T23:48:43.362Z,21.90
2022-07-29T23:51:12.664Z,21.80
2022-07-29T23:53:53.008Z,21.70
2022-07-29T23:56:22.631Z,21.60
2022-07-29T23:58:50.584Z,21.60
